Time;durP1;ratioP1;P1;durP2;ratioP2;P2;SDS_P1;SDS_P2;PMS_P1;PMS_P2;Temp;Humidity;BMP_temperature;BMP_pressure;BME280_temperature;BME280_humidity;BME280_pressure;Samples;Min_cycle;Max_cycle;Signal;HPM_P1;HPM_P2
2021/06/23 00:01:25;;;;;;;18.77;17.07;;;17.50;99.90;;;;;;5010330;28;20163;-79
2021/06/23 00:03:51;;;;;;;23.20;20.20;;;17.50;99.90;;;;;;5012316;28;20174;-79
2021/06/23 00:06:17;;;;;;;23.40;21.23;;;17.50;99.90;;;;;;5020563;28;20228;-81
2021/06/23 00:08:42;;;;;;;21.13;19.33;;;17.50;99.90;;;;;;4996315;28;20995;-79
2021/06/23 00:11:08;;;;;;;24.60;22.50;;;17.50;99.90;;;;;;5013471;28;20174;-79
2021/06/23 00:13:35;;;;;;;21.57;19.67;;;17.50;99.90;;;;;;5013329;28;20171;-79
2021/06/23 00:16:06;;;;;;;22.67;20.43;;;17.50;99.90;;;;;;5014563;28;20609;-78
2021/06/23 00:18:32;;;;;;;21.53;19.47;;;17.50;99.90;;;;;;5012227;28;20582;-79
2021/06/23 00:20:58;;;;;;;22.97;20.70;;;17.50;99.90;;;;;;5011773;28;20627;-78
2021/06/23 00:23:24;;;;;;;19.17;17.47;;;17.50;99.90;;;;;;5014954;28;20562;-78
2021/06/23 00:25:50;;;;;;;22.77;20.70;;;17.60;99.90;;;;;;5014637;28;20627;-78
2021/06/23 00:28:17;;;;;;;22.70;20.33;;;17.50;99.90;;;;;;5015355;28;20567;-79
2021/06/23 00:30:42;;;;;;;24.00;21.60;;;17.60;99.90;;;;;;4998043;28;20925;-79
2021/06/23 00:33:19;;;;;;;21.93;19.77;;;17.60;99.90;;;;;;5014839;28;20639;-79
2021/06/23 00:35:46;;;;;;;21.20;19.17;;;17.60;99.90;;;;;;5016721;28;20197;-78
2021/06/23 00:38:12;;;;;;;21.47;19.53;;;17.60;99.90;;;;;;5013612;28;20569;-78
2021/06/23 00:40:38;;;;;;;19.43;17.40;;;17.60;99.90;;;;;;5014579;28;20617;-78
2021/06/23 00:43:05;;;;;;;17.00;15.50;;;17.60;99.90;;;;;;5013422;28;20569;-79
2021/06/23 00:45:32;;;;;;;19.70;17.90;;;17.60;99.90;;;;;;4996915;28;20616;-79
2021/06/23 00:47:59;;;;;;;21.70;19.70;;;17.70;99.90;;;;;;5014433;28;20672;-79
2021/06/23 00:50:27;;;;;;;21.07;19.03;;;17.60;99.90;;;;;;5013422;28;20569;-79
2021/06/23 00:53:12;;;;;;;20.73;18.93;;;17.70;99.90;;;;;;4997151;28;20642;-79
2021/06/23 00:55:45;;;;;;;22.17;19.87;;;17.70;99.90;;;;;;4996337;28;20712;-79
2021/06/23 00:58:13;;;;;;;19.50;17.60;;;17.70;99.90;;;;;;5014462;28;20561;-79
2021/06/23 01:00:40;;;;;;;19.53;17.63;;;17.70;99.90;;;;;;5014291;28;21029;-79
2021/06/23 01:03:08;;;;;;;20.23;18.27;;;17.70;99.90;;;;;;5014250;28;20569;-79
2021/06/23 01:05:38;;;;;;;17.00;15.50;;;17.70;99.90;;;;;;4996198;28;21024;-79
2021/06/23 01:08:09;;;;;;;17.30;15.80;;;17.70;99.90;;;;;;5013125;28;20592;-79
2021/06/23 01:10:35;;;;;;;18.80;17.20;;;17.60;99.90;;;;;;5015694;28;20623;-78
2021/06/23 01:13:20;;;;;;;16.83;15.10;;;17.70;99.90;;;;;;5013246;28;20573;-79
2021/06/23 01:15:49;;;;;;;15.47;14.07;;;17.60;99.90;;;;;;5012744;28;20597;-78
2021/06/23 01:18:14;;;;;;;17.57;15.97;;;17.60;99.90;;;;;;4996759;28;20628;-78
2021/06/23 01:20:44;;;;;;;16.00;14.40;;;17.60;99.90;;;;;;5013397;28;21179;-78
2021/06/23 01:23:12;;;;;;;14.80;13.50;;;17.60;99.90;;;;;;4996339;28;20631;-78
2021/06/23 01:25:39;;;;;;;15.30;13.90;;;17.60;99.90;;;;;;5012271;28;20659;-78
2021/06/23 01:28:05;;;;;;;14.93;13.53;;;17.60;99.90;;;;;;5012683;28;20573;-79
2021/06/23 01:30:39;;;;;;;14.77;13.50;;;17.60;99.90;;;;;;5012848;28;20650;-79
2021/06/23 01:33:38;;;;;;;14.70;13.17;;;17.60;99.90;;;;;;4992510;28;21169;-80
2021/06/23 01:36:04;;;;;;;14.10;12.80;;;17.60;99.90;;;;;;5012530;28;20686;-79
2021/06/23 01:38:30;;;;;;;15.17;13.67;;;17.60;99.90;;;;;;5012515;28;20627;-80
2021/06/23 01:40:58;;;;;;;14.97;13.30;;;17.60;99.90;;;;;;4995974;28;21245;-80
2021/06/23 01:43:24;;;;;;;15.43;13.10;;;17.60;99.90;;;;;;5012340;28;20569;-80
2021/06/23 01:45:51;;;;;;;14.57;13.10;;;17.60;99.90;;;;;;5012113;28;20612;-80
2021/06/23 01:48:23;;;;;;;13.70;12.27;;;17.60;99.90;;;;;;5015855;28;21019;-80
2021/06/23 01:50:59;;;;;;;12.27;11.17;;;17.60;99.90;;;;;;5012456;28;20577;-80
2021/06/23 01:53:35;;;;;;;11.90;10.80;;;17.60;99.90;;;;;;5012457;28;20568;-80
2021/06/23 01:56:06;;;;;;;14.00;12.73;;;17.60;99.90;;;;;;5013091;28;20703;-79
2021/06/23 01:58:41;;;;;;;12.50;11.43;;;17.60;99.90;;;;;;5012182;28;20581;-80
2021/06/23 02:01:44;;;;;;;12.47;11.13;;;17.60;99.90;;;;;;5001414;28;21009;-80
2021/06/23 02:04:50;;;;;;;11.63;10.50;;;17.50;99.90;;;;;;5012217;28;20693;-80
2021/06/23 02:08:02;;;;;;;13.47;11.07;;;17.50;99.90;;;;;;5012864;22;20660;-82
2021/06/23 02:10:52;;;;;;;12.33;10.97;;;17.50;99.90;;;;;;4986330;28;20617;-82
2021/06/23 02:14:27;;;;;;;11.30;10.27;;;17.50;99.90;;;;;;5006812;28;20629;-82
2021/06/23 02:17:10;;;;;;;11.50;10.40;;;17.40;99.90;;;;;;4981987;28;20720;-82
2021/06/23 02:19:47;;;;;;;12.13;10.70;;;17.50;99.90;;;;;;5011138;28;20637;-82
2021/06/23 02:22:24;;;;;;;13.20;12.03;;;17.40;99.90;;;;;;5013070;28;20570;-82
2021/06/23 02:25:07;;;;;;;12.03;10.83;;;17.40;99.90;;;;;;5011761;28;20561;-82
2021/06/23 02:27:42;;;;;;;12.47;11.03;;;17.40;99.90;;;;;;5011254;28;20593;-82
2021/06/23 02:30:11;;;;;;;12.40;11.10;;;17.40;99.90;;;;;;5011610;28;20573;-82
2021/06/23 02:32:41;;;;;;;12.37;11.00;;;17.40;99.90;;;;;;4995298;28;21016;-82
2021/06/23 02:35:09;;;;;;;12.40;11.20;;;17.40;99.90;;;;;;5014196;28;20616;-81
2021/06/23 02:37:44;;;;;;;12.27;11.07;;;17.50;99.90;;;;;;5011230;28;20593;-82
2021/06/23 02:40:11;;;;;;;12.80;11.60;;;17.50;99.90;;;;;;5011836;28;21179;-81
2021/06/23 02:42:42;;;;;;;12.60;11.53;;;17.40;99.90;;;;;;5012127;28;20639;-82
2021/06/23 02:45:13;;;;;;;11.90;10.80;;;17.40;99.90;;;;;;5011798;28;20977;-84
2021/06/23 02:47:41;;;;;;;12.13;11.13;;;17.40;99.90;;;;;;4994144;28;20675;-83
2021/06/23 02:50:14;;;;;;;12.87;11.60;;;17.40;99.90;;;;;;4994741;28;20897;-81
2021/06/23 02:53:08;;;;;;;11.03;10.03;;;17.50;99.90;;;;;;5011160;28;20582;-81
2021/06/23 02:55:35;;;;;;;12.30;11.13;;;17.50;99.90;;;;;;5010791;28;21018;-81
2021/06/23 02:58:01;;;;;;;10.20;9.30;;;17.40;99.90;;;;;;5011406;28;20962;-82
2021/06/23 03:00:30;;;;;;;10.43;9.40;;;17.50;99.90;;;;;;5011555;28;20624;-82
2021/06/23 03:02:56;;;;;;;12.70;11.53;;;17.50;99.90;;;;;;5011141;28;20672;-82
2021/06/23 03:05:22;;;;;;;14.80;13.30;;;17.50;99.90;;;;;;5010899;28;21044;-82
2021/06/23 03:07:48;;;;;;;13.47;12.17;;;17.40;99.90;;;;;;5010637;28;21168;-82
2021/06/23 03:10:23;;;;;;;12.90;11.70;;;17.50;99.90;;;;;;5011263;28;21104;-81
2021/06/23 03:12:57;;;;;;;11.33;10.17;;;17.40;99.90;;;;;;5014335;28;21239;-81
2021/06/23 03:15:36;;;;;;;13.30;10.87;;;17.40;99.90;;;;;;5011673;28;20568;-81
2021/06/23 03:18:27;;;;;;;11.50;10.50;;;17.50;99.90;;;;;;5006559;28;20637;-81
2021/06/23 03:20:53;;;;;;;11.67;10.47;;;17.50;99.90;;;;;;4994590;28;20632;-82
2021/06/23 03:23:19;;;;;;;12.50;10.90;;;17.50;99.90;;;;;;5012633;28;20569;-82
2021/06/23 03:25:45;;;;;;;13.00;11.90;;;17.40;99.90;;;;;;5010859;28;20181;-82
2021/06/23 03:28:12;;;;;;;13.70;12.50;;;17.50;99.90;;;;;;5027136;28;20958;-82
2021/06/23 03:30:41;;;;;;;10.77;9.80;;;17.40;99.90;;;;;;5010842;28;20174;-82
2021/06/23 03:33:08;;;;;;;10.80;9.90;;;17.40;99.90;;;;;;5010661;28;20577;-81
2021/06/23 03:35:54;;;;;;;10.73;9.63;;;17.40;99.90;;;;;;5011473;28;20608;-82
2021/06/23 03:38:20;;;;;;;11.10;10.30;;;17.40;99.90;;;;;;4993990;28;20629;-82
2021/06/23 03:40:46;;;;;;;12.80;11.23;;;17.40;99.90;;;;;;5010590;28;20657;-82
2021/06/23 03:43:13;;;;;;;13.90;10.93;;;17.40;99.90;;;;;;4994216;28;20562;-81
2021/06/23 03:45:42;;;;;;;12.33;11.13;;;17.40;99.90;;;;;;5010499;28;20592;-83
2021/06/23 03:48:08;;;;;;;11.77;10.63;;;17.50;99.90;;;;;;4995721;28;20605;-82
2021/06/23 03:50:34;;;;;;;11.80;10.90;;;17.50;99.90;;;;;;5010646;28;20608;-83
2021/06/23 03:53:03;;;;;;;11.50;10.37;;;17.50;99.90;;;;;;5011025;28;20663;-82
2021/06/23 03:55:30;;;;;;;12.63;11.43;;;17.40;99.90;;;;;;5011626;28;20573;-82
2021/06/23 03:57:57;;;;;;;9.90;8.90;;;17.50;99.90;;;;;;5012285;28;21003;-81
2021/06/23 04:00:27;;;;;;;11.93;10.50;;;17.40;99.90;;;;;;5014108;28;21145;-81
2021/06/23 04:03:09;;;;;;;11.77;10.20;;;17.40;99.90;;;;;;4997720;28;20573;-82
2021/06/23 04:05:53;;;;;;;10.77;9.67;;;17.40;99.90;;;;;;5013739;28;20604;-82
2021/06/23 04:08:18;;;;;;;11.33;9.37;;;17.40;99.90;;;;;;5013987;28;20623;-82
2021/06/23 04:10:44;;;;;;;12.43;9.63;;;17.40;99.90;;;;;;5014229;28;20934;-83
2021/06/23 04:13:10;;;;;;;11.17;9.20;;;17.40;99.90;;;;;;4998869;28;20540;-82
2021/06/23 04:15:36;;;;;;;11.97;10.77;;;17.40;99.90;;;;;;5015313;28;20634;-83
2021/06/23 04:18:02;;;;;;;12.90;10.87;;;17.40;99.90;;;;;;5032804;28;20704;-83
2021/06/23 04:20:28;;;;;;;12.07;10.17;;;17.50;99.90;;;;;;5000024;28;20210;-83
2021/06/23 04:23:04;;;;;;;8.40;7.77;;;17.50;99.90;;;;;;5014416;28;20596;-82
2021/06/23 04:25:30;;;;;;;10.13;9.27;;;17.50;99.90;;;;;;5013964;28;21119;-82
2021/06/23 04:27:56;;;;;;;10.67;9.60;;;17.50;99.90;;;;;;4997731;28;20608;-82
2021/06/23 04:30:22;;;;;;;10.63;9.70;;;17.60;99.90;;;;;;5013769;28;20639;-82
2021/06/23 04:32:49;;;;;;;9.90;9.20;;;17.60;99.90;;;;;;4997350;28;20584;-82
2021/06/23 04:35:35;;;;;;;10.10;9.20;;;17.60;99.90;;;;;;5014045;28;20589;-82
2021/06/23 04:38:01;;;;;;;11.07;10.07;;;17.70;99.90;;;;;;5013383;28;20700;-82
2021/06/23 04:40:27;;;;;;;10.83;9.83;;;17.70;99.90;;;;;;5013422;28;20729;-82
2021/06/23 04:42:57;;;;;;;10.73;9.57;;;17.70;99.90;;;;;;4996926;28;21133;-82
2021/06/23 04:45:23;;;;;;;10.93;9.87;;;17.70;99.90;;;;;;5013515;28;21283;-83
2021/06/23 04:48:07;;;;;;;13.63;9.90;;;17.70;99.90;;;;;;5012555;28;20698;-83
2021/06/23 04:50:35;;;;;;;11.13;9.83;;;17.80;99.90;;;;;;5013092;28;20573;-82
2021/06/23 04:53:21;;;;;;;9.20;8.40;;;17.90;99.90;;;;;;5014670;28;20557;-83
2021/06/23 04:55:47;;;;;;;11.00;9.83;;;17.90;99.90;;;;;;5014148;28;20923;-83
2021/06/23 04:58:18;;;;;;;9.67;8.83;;;17.90;99.90;;;;;;5014483;28;20270;-82
2021/06/23 05:00:49;;;;;;;10.10;9.20;;;17.90;99.90;;;;;;4998768;28;20732;-83
2021/06/23 05:03:24;;;;;;;13.63;10.37;;;18.00;99.90;;;;;;5015121;28;20626;-85
2021/06/23 05:05:50;;;;;;;14.40;11.10;;;18.00;99.90;;;;;;5013644;28;21401;-85
2021/06/23 05:08:15;;;;;;;10.20;8.23;;;18.10;99.90;;;;;;4996118;28;20633;-85
2021/06/23 05:10:41;;;;;;;9.40;8.50;;;18.10;99.90;;;;;;5013296;28;20178;-84
2021/06/23 05:13:08;;;;;;;10.20;9.20;;;18.10;99.90;;;;;;5012439;28;20189;-84
2021/06/23 05:15:34;;;;;;;9.87;9.07;;;18.10;99.90;;;;;;5013889;28;20765;-84
2021/06/23 05:18:02;;;;;;;9.93;9.10;;;18.20;99.90;;;;;;5012589;28;20605;-84
2021/06/23 05:20:28;;;;;;;9.53;8.23;;;18.20;99.90;;;;;;5014508;28;20201;-81
2021/06/23 05:22:53;;;;;;;12.03;11.00;;;18.20;99.90;;;;;;5025825;28;20558;-82
2021/06/23 05:25:20;;;;;;;10.33;9.50;;;18.30;99.90;;;;;;5021136;28;20159;-82
2021/06/23 05:27:46;;;;;;;11.57;10.27;;;18.30;99.90;;;;;;5021691;28;20192;-82
2021/06/23 05:30:12;;;;;;;11.33;10.23;;;18.30;99.90;;;;;;5018226;28;21010;-82
2021/06/23 05:32:38;;;;;;;10.73;9.83;;;18.30;99.90;;;;;;5015689;28;20970;-81
2021/06/23 05:35:05;;;;;;;11.73;10.57;;;18.30;99.90;;;;;;5012543;28;20565;-80
2021/06/23 05:37:31;;;;;;;11.57;10.47;;;18.30;99.90;;;;;;5014803;28;20257;-82
2021/06/23 05:39:57;;;;;;;10.53;9.57;;;18.30;99.90;;;;;;5016610;28;20625;-81
2021/06/23 05:42:23;;;;;;;9.07;8.37;;;18.40;99.90;;;;;;5012836;28;20588;-81
2021/06/23 05:44:48;;;;;;;9.53;8.67;;;18.40;99.90;;;;;;5012769;28;20659;-81
2021/06/23 05:47:14;;;;;;;10.50;9.47;;;18.40;99.90;;;;;;5013293;28;20190;-80
2021/06/23 05:49:40;;;;;;;9.67;8.87;;;18.50;99.90;;;;;;5013401;28;20174;-80
2021/06/23 05:52:06;;;;;;;11.23;10.07;;;18.50;99.90;;;;;;5013954;28;20577;-81
2021/06/23 05:54:32;;;;;;;10.40;9.50;;;18.60;99.90;;;;;;5012839;28;20266;-82
2021/06/23 05:56:58;;;;;;;11.63;10.53;;;18.60;99.90;;;;;;5012959;28;20616;-81
2021/06/23 05:59:24;;;;;;;11.80;10.70;;;18.70;99.90;;;;;;5011629;28;20608;-79
2021/06/23 06:01:50;;;;;;;10.33;8.27;;;18.80;99.90;;;;;;5001600;28;20574;-79
2021/06/23 06:04:16;;;;;;;14.17;10.90;;;18.90;99.90;;;;;;4992819;28;21008;-79
2021/06/23 06:06:42;;;;;;;11.63;10.43;;;19.00;99.90;;;;;;4992767;28;20221;-79
2021/06/23 06:09:07;;;;;;;11.07;9.97;;;19.00;99.90;;;;;;4995019;28;20641;-80
2021/06/23 06:11:33;;;;;;;12.60;10.60;;;19.10;99.90;;;;;;4993794;28;20578;-79
2021/06/23 06:13:59;;;;;;;11.40;10.40;;;19.20;99.90;;;;;;4993492;28;20652;-79
2021/06/23 06:16:26;;;;;;;11.70;10.80;;;19.30;99.90;;;;;;4996202;28;21188;-80
2021/06/23 06:18:52;;;;;;;12.20;10.77;;;19.30;99.90;;;;;;4993117;28;20194;-79
2021/06/23 06:21:18;;;;;;;12.23;11.00;;;19.40;99.90;;;;;;4993609;28;20929;-80
2021/06/23 06:23:44;;;;;;;11.33;10.33;;;19.40;99.90;;;;;;4993579;28;20570;-80
2021/06/23 06:26:09;;;;;;;10.70;9.70;;;19.40;99.90;;;;;;4996106;28;20542;-80
2021/06/23 06:28:35;;;;;;;12.33;10.40;;;19.40;99.90;;;;;;4996122;28;20602;-80
2021/06/23 06:31:01;;;;;;;14.43;11.17;;;19.40;99.90;;;;;;4996728;28;20177;-79
2021/06/23 06:33:27;;;;;;;10.63;9.73;;;19.40;99.90;;;;;;4995372;28;21119;-80
2021/06/23 06:35:53;;;;;;;12.30;11.00;;;19.40;99.90;;;;;;4991588;28;21121;-80
2021/06/23 06:38:19;;;;;;;12.73;11.47;;;19.30;99.90;;;;;;4995347;28;20187;-78
2021/06/23 06:40:44;;;;;;;12.27;11.07;;;19.40;99.90;;;;;;4995387;28;20238;-76
2021/06/23 06:43:11;;;;;;;11.87;10.57;;;19.30;99.90;;;;;;4992466;28;20171;-76
2021/06/23 06:45:37;;;;;;;12.60;11.20;;;19.30;99.90;;;;;;4992902;28;20175;-76
2021/06/23 06:48:03;;;;;;;14.30;11.97;;;19.30;99.90;;;;;;4993525;28;20961;-76
2021/06/23 06:50:29;;;;;;;11.80;10.57;;;19.30;99.90;;;;;;4993888;28;20584;-79
2021/06/23 06:52:56;;;;;;;10.93;9.80;;;19.30;99.90;;;;;;4979327;28;20578;-76
2021/06/23 06:55:36;;;;;;;14.27;11.10;;;19.30;99.90;;;;;;4994045;28;20570;-80
2021/06/23 06:58:02;;;;;;;13.17;11.90;;;19.30;99.90;;;;;;5009917;28;20605;-79
2021/06/23 07:00:28;;;;;;;13.77;12.10;;;19.30;99.90;;;;;;5012066;28;20620;-78
2021/06/23 07:02:55;;;;;;;13.10;11.83;;;19.20;99.90;;;;;;5005371;28;20914;-79
2021/06/23 07:05:24;;;;;;;11.43;10.33;;;19.20;99.90;;;;;;4991018;28;20198;-79
2021/06/23 07:07:50;;;;;;;11.93;11.03;;;19.30;99.90;;;;;;4992039;28;20614;-78
2021/06/23 07:10:16;;;;;;;13.30;12.00;;;19.30;99.90;;;;;;4992392;28;20577;-79
2021/06/23 07:12:43;;;;;;;12.70;11.60;;;19.30;99.90;;;;;;4975666;28;20574;-80
2021/06/23 07:15:11;;;;;;;10.90;9.80;;;19.30;99.90;;;;;;4995837;28;20574;-78
2021/06/23 07:17:39;;;;;;;11.90;10.90;;;19.30;99.90;;;;;;4981812;28;20709;-78
2021/06/23 07:20:06;;;;;;;15.10;11.90;;;19.30;99.90;;;;;;4968720;28;20646;-79
2021/06/23 07:22:32;;;;;;;12.83;11.67;;;19.30;99.90;;;;;;5005211;28;20597;-79
2021/06/23 07:24:58;;;;;;;10.60;9.67;;;19.30;99.90;;;;;;4978432;28;21190;-79
2021/06/23 07:27:26;;;;;;;12.40;11.30;;;19.20;99.90;;;;;;4994904;28;20614;-79
2021/06/23 07:29:55;;;;;;;12.50;11.40;;;19.20;99.90;;;;;;4980350;28;20578;-78
2021/06/23 07:37:18;;;;;;;11.57;10.57;;;19.30;99.90;;;;;;4995658;28;20756;-79
2021/06/23 07:39:45;;;;;;;12.20;11.00;;;19.40;99.90;;;;;;4988851;28;20210;-79
2021/06/23 07:42:12;;;;;;;12.33;11.03;;;19.40;99.90;;;;;;4971840;28;20586;-78
2021/06/23 07:44:56;;;;;;;13.30;12.10;;;19.40;99.90;;;;;;4988937;28;20594;-79
2021/06/23 07:47:24;;;;;;;11.80;10.90;;;19.50;99.90;;;;;;4989736;28;20633;-79
2021/06/23 07:49:52;;;;;;;13.73;12.33;;;19.50;99.90;;;;;;5000621;28;20578;-78
2021/06/23 07:52:24;;;;;;;11.50;10.60;;;19.50;99.90;;;;;;5018361;28;20578;-78
2021/06/23 08:11:18;;;;;;;11.23;10.13;;;19.80;99.90;;;;;;5015536;28;20624;-80
2021/06/23 08:13:45;;;;;;;10.97;10.07;;;19.90;99.90;;;;;;5015495;28;21328;-80
2021/06/23 08:16:11;;;;;;;11.17;10.23;;;19.90;99.90;;;;;;5015771;28;20576;-79
2021/06/23 08:18:37;;;;;;;11.97;10.37;;;19.90;99.90;;;;;;5014462;28;21160;-80
2021/06/23 08:21:03;;;;;;;11.40;10.20;;;20.00;99.90;;;;;;5015223;28;20197;-79
2021/06/23 08:23:28;;;;;;;10.67;9.00;;;20.00;99.90;;;;;;5015589;28;20167;-79
2021/06/23 08:25:54;;;;;;;12.63;9.00;;;20.00;99.90;;;;;;5013587;28;20612;-80
2021/06/23 08:28:20;;;;;;;10.97;10.07;;;20.10;99.90;;;;;;5015035;28;20195;-80
2021/06/23 08:30:46;;;;;;;11.23;10.20;;;20.10;99.90;;;;;;5016811;28;20178;-80
2021/06/23 08:33:12;;;;;;;10.80;9.80;;;20.20;99.90;;;;;;5015265;28;20530;-80
2021/06/23 08:35:37;;;;;;;12.90;10.10;;;20.30;99.90;;;;;;5015609;28;20611;-80
2021/06/23 08:38:03;;;;;;;11.80;10.70;;;20.30;99.90;;;;;;5012975;28;20276;-80
2021/06/23 08:40:33;;;;;;;11.00;9.10;;;20.40;99.90;;;;;;5014364;28;20346;-80
2021/06/23 08:42:59;;;;;;;10.00;9.07;;;20.40;99.90;;;;;;5017440;28;20166;-81
2021/06/23 08:45:25;;;;;;;12.57;9.20;;;20.50;99.90;;;;;;5013951;28;20617;-79
2021/06/23 08:47:51;;;;;;;10.73;9.17;;;20.50;99.90;;;;;;5013623;28;20189;-80
2021/06/23 08:50:20;;;;;;;11.17;10.07;;;20.50;99.90;;;;;;4999533;28;21414;-81
2021/06/23 08:52:50;;;;;;;10.60;9.60;;;20.60;99.90;;;;;;5019403;28;20185;-80
2021/06/23 08:55:19;;;;;;;10.90;9.70;;;20.70;99.90;;;;;;5016910;28;20562;-80
2021/06/23 08:57:47;;;;;;;10.63;8.70;;;20.70;99.90;;;;;;5015098;28;20736;-80
2021/06/23 09:00:16;;;;;;;8.20;7.50;;;20.80;99.90;;;;;;5016177;28;21275;-85
2021/06/23 09:02:48;;;;;;;9.73;8.83;;;20.90;99.90;;;;;;5023599;28;20603;-85
2021/06/23 09:05:16;;;;;;;11.07;9.97;;;21.00;99.90;;;;;;5017890;28;21008;-85
2021/06/23 09:07:53;;;;;;;10.13;9.23;;;21.10;99.90;;;;;;5018699;28;20636;-85
2021/06/23 09:10:25;;;;;;;10.80;8.90;;;21.20;99.90;;;;;;5018055;28;20649;-83
2021/06/23 09:13:00;;;;;;;10.43;8.70;;;21.20;99.90;;;;;;5030831;28;20577;-83
2021/06/23 09:15:43;;;;;;;10.40;9.50;;;21.30;99.90;;;;;;5010027;28;20604;-83
2021/06/23 09:18:11;;;;;;;9.37;8.47;;;21.30;99.90;;;;;;5022508;28;20624;-84
2021/06/23 09:20:37;;;;;;;10.50;9.27;;;21.40;99.90;;;;;;5025735;28;20656;-84
2021/06/23 09:23:02;;;;;;;10.37;9.37;;;21.50;99.90;;;;;;5019035;28;20557;-83
2021/06/23 09:25:32;;;;;;;12.33;9.77;;;21.60;99.90;;;;;;5017906;28;20940;-83
2021/06/23 09:28:00;;;;;;;9.30;8.40;;;21.60;99.90;;;;;;5014107;28;20194;-84
2021/06/23 09:30:36;;;;;;;10.70;9.60;;;21.70;99.90;;;;;;5012631;28;20580;-83
2021/06/23 09:33:23;;;;;;;9.73;8.73;;;21.90;99.90;;;;;;5012458;28;21236;-84
2021/06/23 09:35:58;;;;;;;8.87;7.40;;;21.90;99.90;;;;;;5016828;28;20573;-84
2021/06/23 09:38:32;;;;;;;10.53;9.50;;;22.00;99.90;;;;;;5016395;28;20600;-84
2021/06/23 09:41:01;;;;;;;9.90;8.90;;;22.10;99.90;;;;;;4997492;28;20636;-84
2021/06/23 09:43:40;;;;;;;12.20;8.93;;;22.20;99.90;;;;;;5018329;28;20604;-83
2021/06/23 09:46:33;;;;;;;10.80;8.83;;;22.20;99.90;;;;;;5017321;28;20561;-83
2021/06/23 09:49:09;;;;;;;10.10;9.30;;;22.30;99.90;;;;;;5017504;28;20613;-83
2021/06/23 09:51:54;;;;;;;11.13;10.00;;;22.40;99.90;;;;;;5016512;28;20576;-84
2021/06/23 09:54:27;;;;;;;8.80;7.97;;;22.40;99.90;;;;;;5017741;28;20619;-84
2021/06/23 09:56:54;;;;;;;11.20;8.73;;;22.50;99.90;;;;;;5016673;28;20565;-84
2021/06/23 09:59:33;;;;;;;10.73;9.40;;;22.50;99.90;;;;;;5017082;28;20577;-84
2021/06/23 10:02:00;;;;;;;11.00;7.97;;;22.50;99.90;;;;;;5014888;28;20565;-84
2021/06/23 10:04:35;;;;;;;9.77;8.97;;;22.50;99.90;;;;;;5015152;28;20605;-85
2021/06/23 10:07:02;;;;;;;11.20;10.10;;;22.60;99.90;;;;;;5015562;28;20603;-85
2021/06/23 10:09:29;;;;;;;11.50;10.50;;;22.60;99.90;;;;;;5015194;28;20605;-86
2021/06/23 10:12:01;;;;;;;10.80;9.80;;;22.60;99.90;;;;;;5017353;28;20994;-86
2021/06/23 10:14:30;;;;;;;10.60;9.53;;;22.70;99.90;;;;;;5018900;28;20575;-86
2021/06/23 10:16:57;;;;;;;10.30;8.60;;;22.70;99.90;;;;;;5017935;28;20693;-85
2021/06/23 10:19:23;;;;;;;10.23;9.33;;;22.90;99.90;;;;;;5014319;28;20597;-86
2021/06/23 10:21:49;;;;;;;10.80;9.90;;;23.00;99.90;;;;;;5014316;28;20600;-86
2021/06/23 10:24:16;;;;;;;9.10;8.27;;;23.20;99.90;;;;;;5013974;28;20554;-85
2021/06/23 10:26:52;;;;;;;8.83;8.10;;;23.40;99.90;;;;;;5012741;28;20616;-85
2021/06/23 10:29:28;;;;;;;10.50;9.57;;;23.50;99.90;;;;;;5012936;28;20561;-85
2021/06/23 10:31:54;;;;;;;10.40;8.70;;;23.70;99.90;;;;;;5005402;28;20573;-84
2021/06/23 10:34:20;;;;;;;10.90;10.10;;;23.90;99.90;;;;;;4994203;28;20586;-86
2021/06/23 10:36:48;;;;;;;10.17;9.23;;;24.00;99.90;;;;;;4993648;28;20579;-86
2021/06/23 10:39:15;;;;;;;11.00;10.00;;;24.10;99.90;;;;;;4992811;28;20674;-86
2021/06/23 10:41:46;;;;;;;11.00;8.47;;;24.20;99.90;;;;;;4992665;28;20765;-86
2021/06/23 10:44:17;;;;;;;7.57;6.97;;;24.20;99.90;;;;;;4993152;28;20923;-86
2021/06/23 10:46:45;;;;;;;9.23;8.47;;;24.20;99.90;;;;;;4991918;28;20614;-85
2021/06/23 10:49:16;;;;;;;9.37;8.30;;;24.30;99.90;;;;;;4992853;28;20614;-86
2021/06/23 10:51:42;;;;;;;8.63;7.90;;;24.30;99.90;;;;;;5008348;28;21004;-86
2021/06/23 10:54:26;;;;;;;8.40;7.57;;;24.30;99.90;;;;;;5010296;28;20590;-86
2021/06/23 10:56:52;;;;;;;8.37;7.40;;;24.20;99.90;;;;;;4993747;28;20573;-86
2021/06/23 10:59:35;;;;;;;9.30;8.50;;;24.20;99.90;;;;;;4992359;28;20574;-85
2021/06/23 11:02:14;;;;;;;9.57;8.70;;;24.10;99.90;;;;;;4993321;28;20223;-86
2021/06/23 11:04:57;;;;;;;11.80;10.80;;;24.10;99.90;;;;;;4992900;28;20562;-85
2021/06/23 11:07:53;;;;;;;9.67;8.87;;;24.00;99.90;;;;;;4992364;28;20617;-85
2021/06/23 11:10:26;;;;;;;11.10;9.87;;;23.90;99.90;;;;;;4996448;28;20981;-86
2021/06/23 11:12:56;;;;;;;9.70;8.77;;;23.90;99.90;;;;;;4994313;28;20980;-86
2021/06/23 11:15:31;;;;;;;10.37;9.27;;;23.90;99.90;;;;;;4995222;28;20570;-85
2021/06/23 11:18:15;;;;;;;12.07;9.03;;;23.90;99.90;;;;;;4996875;28;20605;-85
2021/06/23 11:20:43;;;;;;;9.23;8.33;;;23.90;99.90;;;;;;5000557;28;20622;-86
2021/06/23 11:23:47;;;;;;;10.13;9.23;;;24.00;99.90;;;;;;4992461;28;20575;-85
2021/06/23 11:26:19;;;;;;;10.83;9.73;;;24.20;99.90;;;;;;4995954;28;20605;-85
2021/06/23 11:28:47;;;;;;;9.40;8.50;;;24.40;99.90;;;;;;4997112;28;20595;-85
2021/06/23 11:31:13;;;;;;;8.57;7.60;;;24.60;99.90;;;;;;4997793;28;20570;-85
2021/06/23 11:33:39;;;;;;;9.97;9.07;;;24.80;99.90;;;;;;4993699;28;20582;-85
2021/06/23 11:36:07;;;;;;;8.53;7.83;;;25.00;99.90;;;;;;4993503;28;20942;-85
2021/06/23 11:38:33;;;;;;;13.83;9.80;;;25.20;99.90;;;;;;4995728;28;20366;-86
2021/06/23 11:41:02;;;;;;;10.80;9.70;;;25.40;99.90;;;;;;4994673;28;20696;-86
2021/06/23 11:43:28;;;;;;;9.70;8.20;;;25.70;99.90;;;;;;4979374;28;20934;-86
2021/06/23 11:45:54;;;;;;;8.33;7.60;;;26.10;99.90;;;;;;4997392;28;20662;-86
2021/06/23 11:48:19;;;;;;;11.67;7.37;;;26.40;99.90;;;;;;4998048;28;20201;-86
2021/06/23 11:50:46;;;;;;;8.40;6.77;;;26.60;99.90;;;;;;4996407;28;20653;-86
2021/06/23 11:53:17;;;;;;;10.27;7.37;;;26.70;99.90;;;;;;4996314;28;20905;-85
2021/06/23 11:55:45;;;;;;;8.40;7.70;;;26.90;99.90;;;;;;4994696;28;20636;-86
2021/06/23 11:58:10;;;;;;;8.67;6.90;;;27.00;99.90;;;;;;4994058;28;20594;-85
2021/06/23 12:00:38;;;;;;;7.70;7.10;;;27.30;99.90;;;;;;4994532;28;20601;-86
2021/06/23 12:03:07;;;;;;;7.43;6.50;;;27.50;99.90;;;;;;4994955;28;20171;-85
2021/06/23 12:05:33;;;;;;;10.33;7.10;;;27.60;99.90;;;;;;4997993;28;20567;-84
2021/06/23 12:07:59;;;;;;;7.90;6.40;;;27.70;99.90;;;;;;5000526;28;20617;-84
2021/06/23 12:10:28;;;;;;;8.53;6.90;;;27.70;99.90;;;;;;4993718;28;20702;-83
2021/06/23 12:12:54;;;;;;;7.73;6.87;;;27.60;99.90;;;;;;4995585;28;20913;-84
2021/06/23 12:15:22;;;;;;;10.37;7.33;;;27.50;99.90;;;;;;4991655;28;20640;-83
2021/06/23 12:17:49;;;;;;;9.67;8.20;;;27.40;99.90;;;;;;4992647;28;20676;-85
2021/06/23 12:20:16;;;;;;;8.67;7.67;;;27.20;99.90;;;;;;5001028;28;20668;-84
2021/06/23 12:22:42;;;;;;;8.10;7.43;;;27.10;99.90;;;;;;5018346;28;20599;-83
2021/06/23 12:25:11;;;;;;;9.43;7.70;;;26.90;99.90;;;;;;5016003;28;20577;-83
2021/06/23 12:27:37;;;;;;;9.37;8.20;;;26.70;99.90;;;;;;5017629;28;20629;-83
2021/06/23 12:30:05;;;;;;;10.87;7.70;;;26.60;99.90;;;;;;5006661;28;20594;-83
2021/06/23 12:32:32;;;;;;;8.60;7.80;;;26.30;99.90;;;;;;5009089;28;21005;-83
2021/06/23 12:34:59;;;;;;;8.97;7.00;;;26.20;99.90;;;;;;4994630;28;20574;-82
2021/06/23 12:37:25;;;;;;;8.90;7.97;;;26.00;99.90;;;;;;5004849;28;20609;-85
2021/06/23 12:39:54;;;;;;;10.57;6.43;;;25.80;99.90;;;;;;5021144;28;20687;-84
2021/06/23 12:42:20;;;;;;;8.20;7.40;;;25.70;99.90;;;;;;5022998;28;20573;-84
2021/06/23 12:44:46;;;;;;;8.80;7.90;;;25.70;99.90;;;;;;5026550;28;21040;-84
2021/06/23 12:47:12;;;;;;;7.93;7.23;;;25.70;99.90;;;;;;5024833;28;20194;-84
2021/06/23 12:49:38;;;;;;;6.27;5.77;;;25.70;99.90;;;;;;5014939;28;20596;-85
2021/06/23 12:52:05;;;;;;;9.17;6.77;;;25.70;99.90;;;;;;5013342;28;21117;-85
2021/06/23 12:54:31;;;;;;;7.60;6.50;;;25.90;99.90;;;;;;4980998;28;20184;-84
2021/06/23 12:56:57;;;;;;;11.30;7.00;;;26.00;99.90;;;;;;5013692;28;20613;-84
2021/06/23 12:59:24;;;;;;;10.13;9.23;;;26.20;99.90;;;;;;5016886;28;20718;-82
2021/06/23 13:01:50;;;;;;;10.07;7.40;;;26.30;99.90;;;;;;5016385;28;20171;-80
2021/06/23 13:04:16;;;;;;;6.97;6.37;;;26.40;99.90;;;;;;5017683;28;20579;-79
2021/06/23 13:06:42;;;;;;;6.80;6.20;;;26.40;99.90;;;;;;5012802;28;20642;-83
2021/06/23 13:09:08;;;;;;;8.23;6.37;;;26.50;99.90;;;;;;5014861;28;20612;-85